Time;durP1;ratioP1;P1;durP2;ratioP2;P2;SDS_P1;SDS_P2;PMS_P1;PMS_P2;Temp;Humidity;BMP_temperature;BMP_pressure;BME280_temperature;BME280_humidity;BME280_pressure;Samples;Min_cycle;Max_cycle;Signal;HPM_P1;HPM_P2
2023/11/30 00:01:49;;;;;;;3.20;2.90;;;;;;;17.18;51.62;97260.88;105268;1261;66211;-35
2023/11/30 00:04:16;;;;;;;3.80;3.10;;;;;;;17.18;51.68;97262.95;105375;1256;72329;-34
2023/11/30 00:06:43;;;;;;;3.60;2.60;;;;;;;17.18;51.76;97259.00;105525;1262;60430;-34
2023/11/30 00:09:11;;;;;;;3.20;2.70;;;;;;;17.18;51.66;97263.88;105620;1256;60541;-34
2023/11/30 00:11:38;;;;;;;3.20;2.90;;;;;;;17.17;51.66;97265.25;105332;1257;74431;-35
2023/11/30 00:14:05;;;;;;;3.20;2.90;;;;;;;17.18;51.63;97262.48;105100;1261;65607;-35
2023/11/30 00:16:33;;;;;;;2.90;2.60;;;;;;;17.17;51.66;97262.46;105626;1262;72637;-35
2023/11/30 00:19:00;;;;;;;2.90;2.60;;;;;;;17.17;51.62;97265.87;105470;1261;61248;-35
2023/11/30 00:21:28;;;;;;;3.20;2.90;;;;;;;17.17;51.64;97262.39;105370;1256;61271;-35
2023/11/30 00:23:55;;;;;;;2.90;2.60;;;;;;;17.16;51.72;97265.33;105379;1257;74588;-35
2023/11/30 00:26:22;;;;;;;3.40;3.10;;;;;;;17.16;51.61;97269.02;105260;1262;65090;-35
2023/11/30 00:28:56;;;;;;;3.20;2.80;;;;;;;17.16;51.64;97272.80;105406;1256;72553;-34
2023/11/30 00:31:25;;;;;;;3.40;2.80;;;;;;;17.15;51.56;97278.66;105470;1261;61243;-34
2023/11/30 00:33:55;;;;;;;3.10;2.80;;;;;;;17.15;51.62;97276.73;105635;1257;61278;-34
2023/11/30 00:36:23;;;;;;;2.80;2.50;;;;;;;17.16;51.56;97275.20;105422;1261;74466;-34
2023/11/30 00:38:51;;;;;;;2.90;2.60;;;;;;;17.15;51.61;97274.71;105496;1261;65030;-34
2023/11/30 00:41:18;;;;;;;3.00;2.70;;;;;;;17.16;51.57;97271.40;105281;1256;71478;-35
2023/11/30 00:43:47;;;;;;;2.50;2.30;;;;;;;17.15;51.64;97269.77;105510;1262;61231;-35
2023/11/30 00:46:16;;;;;;;3.30;3.00;;;;;;;17.15;51.58;97265.73;105619;1256;61351;-34
2023/11/30 00:48:45;;;;;;;3.40;3.10;;;;;;;17.15;51.57;97263.88;105250;1256;74345;-34
2023/11/30 00:51:13;;;;;;;3.30;3.00;;;;;;;17.15;51.64;97264.41;105662;1260;65145;-34
2023/11/30 00:53:40;;;;;;;2.90;2.50;;;;;;;17.15;51.63;97264.64;105290;1260;72595;-33
2023/11/30 00:56:10;;;;;;;3.00;2.70;;;;;;;17.14;51.62;97267.42;105331;1262;61224;-35
2023/11/30 00:58:37;;;;;;;2.60;2.40;;;;;;;17.14;51.79;97270.67;105257;1260;61250;-35
2023/11/30 01:01:05;;;;;;;3.30;3.00;;;;;;;17.14;51.64;97273.60;105148;1263;74560;-35
2023/11/30 01:03:32;;;;;;;2.90;2.60;;;;;;;17.14;51.61;97277.16;105513;1261;65366;-35
2023/11/30 01:06:00;;;;;;;3.00;2.70;;;;;;;17.13;51.61;97275.75;105589;1260;72579;-35
2023/11/30 01:08:27;;;;;;;3.10;2.80;;;;;;;17.14;51.55;97276.54;105528;1260;61239;-35
2023/11/30 01:10:54;;;;;;;3.50;2.70;;;;;;;17.14;51.63;97276.86;105436;1262;61327;-35
2023/11/30 01:13:21;;;;;;;3.30;3.00;;;;;;;17.13;51.57;97275.37;105263;1263;74710;-34
2023/11/30 01:15:49;;;;;;;3.20;2.90;;;;;;;17.13;51.62;97276.52;105312;1260;65845;-33
2023/11/30 01:18:16;;;;;;;2.90;2.70;;;;;;;17.13;51.52;97277.83;105195;1260;72342;-34
2023/11/30 01:20:44;;;;;;;3.20;2.90;;;;;;;17.13;51.49;97279.30;105287;1260;61242;-35
2023/11/30 01:23:11;;;;;;;3.20;2.90;;;;;;;17.12;51.46;97283.39;105372;1256;61335;-36
2023/11/30 01:25:38;;;;;;;3.20;2.90;;;;;;;17.12;51.48;97281.61;105519;1260;74417;-37
2023/11/30 01:28:05;;;;;;;3.00;2.70;;;;;;;17.12;51.52;97277.67;105604;1262;66043;-33
2023/11/30 01:30:33;;;;;;;3.30;3.00;;;;;;;17.12;51.49;97278.91;105907;1256;72410;-34
2023/11/30 01:33:00;;;;;;;3.50;3.00;;;;;;;17.12;51.44;97273.63;105321;1261;61231;-35
2023/11/30 01:35:28;;;;;;;3.30;2.90;;;;;;;17.11;51.49;97276.23;105552;1262;61336;-34
2023/11/30 01:37:56;;;;;;;3.20;2.60;;;;;;;17.11;51.54;97276.46;105541;1258;74596;-34
2023/11/30 01:40:23;;;;;;;4.00;2.80;;;;;;;17.10;51.42;97277.08;105571;1256;65491;-34
2023/11/30 01:42:51;;;;;;;3.00;2.70;;;;;;;17.10;51.44;97270.27;105583;1260;72635;-34
2023/11/30 01:45:18;;;;;;;4.00;3.00;;;;;;;17.10;51.47;97269.18;105515;1262;61372;-35
2023/11/30 01:47:45;;;;;;;5.10;2.90;;;;;;;17.10;51.42;97271.34;105640;1256;61244;-33
2023/11/30 01:50:13;;;;;;;3.00;2.80;;;;;;;17.10;51.50;97269.88;105457;1261;75579;-34
2023/11/30 01:52:41;;;;;;;3.90;3.00;;;;;;;17.10;51.47;97270.41;105289;1262;64062;-34
2023/11/30 01:55:08;;;;;;;3.20;2.90;;;;;;;17.10;51.48;97270.09;105261;1261;72653;-33
2023/11/30 01:57:35;;;;;;;3.00;2.70;;;;;;;17.10;51.40;97268.24;105399;1261;61344;-33
2023/11/30 02:00:04;;;;;;;3.40;2.70;;;;;;;17.10;51.41;97271.34;105315;1256;61228;-34
2023/11/30 02:02:38;;;;;;;2.90;2.60;;;;;;;17.09;51.36;97260.50;105332;1260;74434;-34
2023/11/30 02:05:06;;;;;;;3.10;2.80;;;;;;;17.09;51.34;97261.42;105158;1263;65708;-35
2023/11/30 02:07:33;;;;;;;3.40;3.00;;;;;;;17.08;51.41;97259.55;105354;1260;72461;-35
2023/11/30 02:10:00;;;;;;;3.40;2.80;;;;;;;17.08;51.36;97261.17;105512;1260;61249;-34
2023/11/30 02:12:28;;;;;;;3.70;2.80;;;;;;;17.08;51.35;97263.41;105467;1257;61242;-34
2023/11/30 02:14:59;;;;;;;3.30;3.00;;;;;;;17.08;51.32;97264.17;105155;1260;73578;-35
2023/11/30 02:17:26;;;;;;;3.50;3.00;;;;;;;17.07;51.41;97261.38;105308;1260;66268;-35
2023/11/30 02:19:54;;;;;;;3.20;2.70;;;;;;;17.07;51.40;97264.70;105159;1257;72889;-34
2023/11/30 02:22:21;;;;;;;3.20;2.80;;;;;;;17.07;51.40;97266.48;105411;1260;61270;-34
2023/11/30 02:24:48;;;;;;;3.10;2.80;;;;;;;17.07;51.38;97264.92;105356;1261;61357;-34
2023/11/30 02:27:15;;;;;;;3.10;2.80;;;;;;;17.07;51.27;97263.31;105338;1257;74475;-33
2023/11/30 02:29:43;;;;;;;2.80;2.50;;;;;;;17.06;51.35;97266.91;105300;1259;65625;-34
2023/11/30 02:32:10;;;;;;;3.90;2.80;;;;;;;17.06;51.29;97264.75;105553;1259;72668;-38
2023/11/30 02:34:39;;;;;;;3.20;2.80;;;;;;;17.06;51.23;97263.60;105378;1260;61209;-35
2023/11/30 02:37:06;;;;;;;3.40;3.10;;;;;;;17.06;51.33;97265.14;105464;1260;61231;-34
2023/11/30 02:39:34;;;;;;;3.30;2.80;;;;;;;17.06;51.31;97266.61;105483;1262;74407;-34
2023/11/30 02:42:01;;;;;;;4.20;3.40;;;;;;;17.06;51.28;97262.34;105474;1259;65899;-34
2023/11/30 02:44:28;;;;;;;2.90;2.60;;;;;;;17.05;51.37;97264.81;105177;1261;72652;-34
2023/11/30 02:46:56;;;;;;;3.60;2.90;;;;;;;17.05;51.40;97267.52;105311;1261;61261;-34
2023/11/30 02:49:23;;;;;;;4.00;2.70;;;;;;;17.05;51.31;97270.61;105370;1262;61234;-34
2023/11/30 02:51:51;;;;;;;3.70;3.00;;;;;;;17.05;51.31;97277.01;105147;1257;74754;-34
2023/11/30 02:54:18;;;;;;;3.20;2.80;;;;;;;17.04;51.32;97276.39;105322;1260;66178;-34
2023/11/30 02:56:45;;;;;;;3.70;2.40;;;;;;;17.04;51.30;97279.64;105190;1259;72599;-34
2023/11/30 02:59:13;;;;;;;3.10;2.80;;;;;;;17.04;51.29;97282.25;105247;1262;61264;-34
2023/11/30 03:01:46;;;;;;;3.20;2.80;;;;;;;17.03;51.29;97282.85;105328;1257;61338;-33
2023/11/30 03:04:14;;;;;;;3.10;2.70;;;;;;;17.03;51.29;97283.61;105268;1262;73143;-37
2023/11/30 03:06:41;;;;;;;3.30;2.90;;;;;;;17.03;51.25;97286.02;105457;1260;66259;-34
2023/11/30 03:09:11;;;;;;;5.30;2.90;;;;;;;17.02;51.29;97283.29;105437;1256;72996;-35
2023/11/30 03:11:39;;;;;;;3.60;2.90;;;;;;;17.02;51.25;97281.36;105426;1258;61234;-34
2023/11/30 03:14:06;;;;;;;4.80;3.10;;;;;;;17.02;51.27;97277.57;105247;1263;61307;-36
2023/11/30 03:16:33;;;;;;;3.40;2.90;;;;;;;17.02;51.21;97280.57;105426;1261;74843;-35
2023/11/30 03:19:01;;;;;;;4.90;2.60;;;;;;;17.01;51.29;97278.64;105524;1260;67381;-34
2023/11/30 03:21:43;;;;;;;3.60;3.10;;;;;;;17.01;51.20;97280.70;105573;1260;71898;-33
2023/11/30 03:24:11;;;;;;;4.00;2.80;;;;;;;17.01;51.24;97281.72;105557;1261;61180;-35
2023/11/30 03:26:38;;;;;;;3.40;2.90;;;;;;;17.01;51.18;97278.70;105502;1260;61363;-33
2023/11/30 03:29:05;;;;;;;3.90;3.40;;;;;;;17.01;51.16;97286.43;105585;1257;74321;-34
2023/11/30 03:31:33;;;;;;;3.00;2.70;;;;;;;17.01;51.23;97286.49;105545;1262;66140;-34
2023/11/30 03:34:03;;;;;;;3.30;2.60;;;;;;;17.00;51.18;97287.25;105551;1260;72546;-34
2023/11/30 03:36:30;;;;;;;3.80;3.20;;;;;;;17.00;51.17;97288.17;105235;1262;61232;-35
2023/11/30 03:38:58;;;;;;;6.10;3.20;;;;;;;17.01;51.16;97289.12;105492;1260;61368;-35
2023/11/30 03:41:25;;;;;;;3.40;2.80;;;;;;;16.99;51.11;97288.48;105174;1262;73490;-35
2023/11/30 03:43:53;;;;;;;4.10;3.00;;;;;;;16.99;51.18;97285.23;105325;1260;65571;-33
2023/11/30 03:46:24;;;;;;;4.50;3.20;;;;;;;16.99;51.13;97289.17;105637;1260;71734;-34
2023/11/30 03:48:52;;;;;;;3.30;2.70;;;;;;;16.99;51.12;97288.00;105572;1258;61377;-34
2023/11/30 03:51:19;;;;;;;3.50;2.90;;;;;;;16.99;51.15;97289.38;105608;1269;61170;-34
2023/11/30 03:53:47;;;;;;;3.10;2.80;;;;;;;16.99;51.13;97294.09;105457;1258;74385;-34
2023/11/30 03:56:14;;;;;;;3.30;3.00;;;;;;;16.99;51.15;97297.27;105246;1261;66006;-34
2023/11/30 03:58:42;;;;;;;3.20;2.80;;;;;;;16.98;51.12;97296.94;105455;1260;72623;-34
2023/11/30 04:01:10;;;;;;;3.30;2.90;;;;;;;16.98;51.08;97301.42;105378;1264;61263;-35
2023/11/30 04:03:37;;;;;;;3.60;2.80;;;;;;;16.97;51.08;97300.10;105527;1258;61204;-35
2023/11/30 04:06:05;;;;;;;3.70;3.00;;;;;;;16.98;51.18;97298.48;105128;1262;74542;-33
2023/11/30 04:08:33;;;;;;;3.50;2.80;;;;;;;16.98;51.06;97300.27;105281;1258;66209;-34
2023/11/30 04:11:00;;;;;;;2.70;2.50;;;;;;;16.97;51.12;97301.09;105247;1260;72578;-35
2023/11/30 04:13:28;;;;;;;3.10;2.80;;;;;;;16.97;51.18;97306.27;105291;1262;61232;-34
2023/11/30 04:15:55;;;;;;;3.50;3.10;;;;;;;16.97;51.14;97306.19;105613;1257;61219;-33
2023/11/30 04:18:22;;;;;;;3.10;2.80;;;;;;;16.97;51.17;97308.67;105386;1258;74514;-34
2023/11/30 04:20:51;;;;;;;3.30;2.90;;;;;;;16.97;51.12;97310.52;105491;1260;65577;-35
2023/11/30 04:23:19;;;;;;;3.40;2.80;;;;;;;16.96;51.06;97307.79;105325;1260;72657;-33
2023/11/30 04:25:46;;;;;;;3.20;2.90;;;;;;;16.97;51.08;97310.96;105492;1261;61242;-33
2023/11/30 04:28:14;;;;;;;3.10;2.80;;;;;;;16.96;51.04;97310.48;105412;1260;61290;-34
2023/11/30 04:30:41;;;;;;;3.20;2.90;;;;;;;16.97;51.09;97312.58;105487;1260;74722;-34
2023/11/30 04:33:09;;;;;;;3.00;2.70;;;;;;;16.96;51.08;97310.63;105409;1257;65683;-35
2023/11/30 04:35:36;;;;;;;3.30;3.00;;;;;;;16.96;51.02;97308.08;105684;1256;72423;-35
2023/11/30 04:38:03;;;;;;;3.20;2.90;;;;;;;16.96;50.97;97311.33;105307;1269;61244;-32
2023/11/30 04:40:31;;;;;;;3.20;2.90;;;;;;;16.96;50.97;97313.27;105762;1258;61340;-35
2023/11/30 04:42:58;;;;;;;3.20;2.80;;;;;;;16.95;51.02;97315.20;105306;1261;74661;-35
2023/11/30 04:45:25;;;;;;;3.70;3.10;;;;;;;16.95;50.97;97317.27;105507;1260;66242;-35
2023/11/30 04:47:53;;;;;;;4.50;2.90;;;;;;;16.95;51.02;97322.36;105609;1257;72622;-34
2023/11/30 04:50:21;;;;;;;3.30;3.00;;;;;;;16.95;50.95;97321.44;105190;1264;61258;-34
2023/11/30 04:52:48;;;;;;;3.20;2.90;;;;;;;16.94;51.05;97320.81;105100;1257;61276;-35
2023/11/30 04:55:16;;;;;;;3.70;3.00;;;;;;;16.94;50.99;97324.73;105231;1260;74431;-34
2023/11/30 04:57:43;;;;;;;3.30;2.70;;;;;;;16.94;51.04;97322.11;105178;1260;67026;-35
2023/11/30 05:00:11;;;;;;;3.50;3.20;;;;;;;16.94;51.07;97326.35;105501;1256;73654;-35
2023/11/30 05:02:49;;;;;;;3.80;3.10;;;;;;;16.94;51.09;97322.80;105317;1260;61264;-35
2023/11/30 05:05:16;;;;;;;3.00;2.70;;;;;;;16.93;51.06;97323.40;105205;1262;61262;-34
2023/11/30 05:07:43;;;;;;;3.30;2.80;;;;;;;16.93;51.03;97320.91;105185;1261;75014;-34
2023/11/30 05:10:11;;;;;;;3.20;2.70;;;;;;;16.93;50.98;97322.23;105215;1261;67298;-33
2023/11/30 05:12:38;;;;;;;2.90;2.70;;;;;;;16.92;50.98;97319.04;105300;1258;72706;-35
2023/11/30 05:15:06;;;;;;;3.60;3.10;;;;;;;16.92;51.06;97324.06;105216;1261;61215;-35
2023/11/30 05:17:33;;;;;;;3.10;2.80;;;;;;;16.92;51.04;97326.61;105652;1256;61264;-35
2023/11/30 05:20:03;;;;;;;4.00;3.10;;;;;;;16.92;50.99;97327.70;105331;1260;74557;-34
2023/11/30 05:22:31;;;;;;;3.20;2.90;;;;;;;16.92;50.95;97327.06;105275;1260;65059;-35
2023/11/30 05:24:58;;;;;;;3.40;3.10;;;;;;;16.91;51.08;97323.73;105385;1257;72611;-33
2023/11/30 05:27:25;;;;;;;2.90;2.60;;;;;;;16.91;51.00;97320.88;105324;1265;61276;-35
2023/11/30 05:29:53;;;;;;;2.80;2.50;;;;;;;16.91;50.97;97322.18;105279;1257;61317;-36
2023/11/30 05:32:21;;;;;;;3.60;3.00;;;;;;;16.91;50.98;97322.50;105200;1260;75150;-34
2023/11/30 05:34:50;;;;;;;4.00;2.80;;;;;;;16.91;51.04;97319.86;105306;1260;65841;-37
2023/11/30 05:37:17;;;;;;;4.30;3.10;;;;;;;16.91;51.02;97317.39;105225;1257;72325;-37
2023/11/30 05:39:45;;;;;;;3.10;2.80;;;;;;;16.91;50.99;97319.17;105237;1265;61227;-35
2023/11/30 05:42:12;;;;;;;3.70;2.90;;;;;;;16.91;51.00;97326.29;105255;1257;61418;-35
2023/11/30 05:44:39;;;;;;;5.20;3.00;;;;;;;16.90;50.99;97324.88;105410;1261;74559;-33
2023/11/30 05:47:07;;;;;;;3.20;2.90;;;;;;;16.91;50.97;97328.59;105343;1260;65159;-34
2023/11/30 05:49:34;;;;;;;4.00;3.00;;;;;;;16.90;50.97;97328.66;105304;1258;72497;-35
2023/11/30 05:52:02;;;;;;;3.10;2.80;;;;;;;16.90;51.04;97324.85;105222;1261;62020;-35
2023/11/30 05:54:29;;;;;;;3.80;3.20;;;;;;;16.90;51.02;97323.23;105246;1257;61280;-34
2023/11/30 05:56:57;;;;;;;3.60;3.10;;;;;;;16.90;51.02;97327.03;105276;1256;73614;-35
2023/11/30 05:59:27;;;;;;;4.20;3.50;;;;;;;16.90;50.85;97327.55;105173;1260;67234;-35
2023/11/30 06:01:54;;;;;;;5.30;3.90;;;;;;;16.90;50.56;97328.56;105168;1256;73192;-37
2023/11/30 06:04:22;;;;;;;4.60;4.00;;;;;;;16.92;50.33;97331.25;105342;1260;61261;-31
2023/11/30 06:06:49;;;;;;;5.00;4.50;;;;;;;16.94;50.15;97332.46;105961;1257;61264;-33
2023/11/30 06:09:17;;;;;;;7.00;4.20;;;;;;;16.98;50.14;97342.38;105423;1260;74619;-32
2023/11/30 06:11:44;;;;;;;5.20;4.00;;;;;;;17.00;50.02;97344.52;105454;1257;65130;-32
2023/11/30 06:14:11;;;;;;;5.10;4.10;;;;;;;17.02;49.92;97346.29;105206;1257;72318;-32
2023/11/30 06:16:39;;;;;;;5.70;4.00;;;;;;;17.04;49.78;97346.56;105224;1259;61261;-33
2023/11/30 06:19:06;;;;;;;6.00;3.90;;;;;;;17.06;49.76;97343.82;105327;1260;61269;-33
2023/11/30 06:21:33;;;;;;;7.80;4.30;;;;;;;17.07;49.63;97338.29;105121;1260;75192;-31
2023/11/30 06:24:00;;;;;;;5.20;3.80;;;;;;;17.08;49.76;97339.16;105099;1260;66377;-32
2023/11/30 06:26:28;;;;;;;4.50;3.50;;;;;;;17.09;49.96;97344.59;105332;1257;72424;-33
2023/11/30 06:28:56;;;;;;;5.00;4.00;;;;;;;17.10;50.05;97345.47;105252;1260;61224;-31
2023/11/30 06:31:23;;;;;;;5.20;4.00;;;;;;;17.11;50.14;97350.77;105044;1257;61244;-31
2023/11/30 06:33:50;;;;;;;4.20;3.80;;;;;;;17.13;50.13;97348.41;105157;1260;74294;-31
2023/11/30 06:36:18;;;;;;;4.20;3.80;;;;;;;17.14;50.11;97353.45;105277;1260;66206;-32
2023/11/30 06:38:45;;;;;;;6.40;3.90;;;;;;;17.14;50.23;97352.39;105065;1257;73185;-33
2023/11/30 06:41:13;;;;;;;6.30;4.00;;;;;;;17.14;50.19;97344.75;105227;1269;61178;-31
2023/11/30 06:43:40;;;;;;;7.00;3.70;;;;;;;17.15;50.23;97349.25;108994;1256;59127;-33
2023/11/30 06:46:07;;;;;;;7.60;3.90;;;;;;;17.16;50.48;97350.27;107806;1256;75490;-31
2023/11/30 06:48:35;;;;;;;4.90;3.90;;;;;;;17.19;51.19;97349.96;105020;1261;63885;-32
2023/11/30 06:51:06;;;;;;;4.80;3.90;;;;;;;17.23;51.84;97346.80;105025;1258;73066;-31
2023/11/30 06:53:33;;;;;;;4.70;3.80;;;;;;;17.26;52.29;97347.60;105428;1256;61375;-32
2023/11/30 06:56:01;;;;;;;5.60;3.90;;;;;;;17.30;52.38;97348.86;105108;1258;61339;-33
2023/11/30 06:58:29;;;;;;;4.80;3.70;;;;;;;17.34;52.51;97353.59;105056;1261;173052;-33
2023/11/30 07:00:56;;;;;;;4.20;3.80;;;;;;;17.38;52.78;97352.59;105094;1258;65053;-33
2023/11/30 07:03:23;;;;;;;3.50;3.20;;;;;;;17.40;52.92;97348.63;105107;1260;72109;-34
2023/11/30 07:05:51;;;;;;;5.90;3.60;;;;;;;17.43;52.88;97351.34;105057;1257;61236;-33
2023/11/30 07:08:18;;;;;;;6.50;4.10;;;;;;;17.46;52.88;97348.25;104980;1260;61250;-34
2023/11/30 07:10:46;;;;;;;5.10;3.40;;;;;;;17.49;52.82;97344.85;105119;1261;74404;-34
2023/11/30 07:13:13;;;;;;;4.70;3.60;;;;;;;17.51;52.87;97344.60;107458;1255;66264;-33
2023/11/30 07:15:40;;;;;;;4.30;3.80;;;;;;;17.54;52.82;97348.39;105593;1257;72549;-34
2023/11/30 07:18:08;;;;;;;5.40;3.90;;;;;;;17.55;52.94;97349.05;105304;1260;61378;-35
2023/11/30 07:20:36;;;;;;;5.50;3.80;;;;;;;17.58;52.86;97350.11;105605;1256;61227;-33
2023/11/30 07:23:04;;;;;;;5.50;3.70;;;;;;;17.59;52.97;97345.73;105318;1257;73618;-30
2023/11/30 07:25:32;;;;;;;5.50;3.80;;;;;;;17.60;52.87;97349.09;105104;1260;66029;-31
2023/11/30 07:27:59;;;;;;;5.40;3.70;;;;;;;17.62;53.00;97351.38;105111;1257;72647;-35
2023/11/30 07:30:27;;;;;;;8.30;6.00;;;;;;;17.63;52.93;97351.41;105822;1260;61222;-33
2023/11/30 07:32:54;;;;;;;7.40;5.40;;;;;;;17.65;53.03;97353.84;105823;1256;61366;-34
2023/11/30 07:35:22;;;;;;;9.40;5.90;;;;;;;17.65;53.04;97357.17;105209;1256;74497;-34
2023/11/30 07:37:49;;;;;;;6.20;5.40;;;;;;;17.66;52.91;97354.79;105115;1260;65451;-32
2023/11/30 07:40:18;;;;;;;9.40;6.20;;;;;;;17.67;52.93;97358.98;104994;1256;72654;-32
2023/11/30 07:42:45;;;;;;;7.00;5.20;;;;;;;17.67;52.82;97355.06;105258;1260;61231;-31
2023/11/30 07:45:13;;;;;;;6.70;5.70;;;;;;;17.68;52.93;97356.48;105171;1256;61350;-33
2023/11/30 07:47:41;;;;;;;8.40;5.30;;;;;;;17.68;52.84;97349.90;105119;1256;75607;-32
2023/11/30 07:50:09;;;;;;;8.40;4.90;;;;;;;17.69;52.96;97346.98;104956;1260;64232;-33
2023/11/30 07:52:38;;;;;;;7.70;5.20;;;;;;;17.71;53.04;97343.33;105254;1257;72450;-35
2023/11/30 07:55:07;;;;;;;5.40;4.80;;;;;;;17.72;53.29;97338.69;105022;1261;61362;-33
2023/11/30 07:57:38;;;;;;;6.80;5.20;;;;;;;17.73;53.53;97336.39;106766;1256;61507;-34
2023/11/30 08:00:11;;;;;;;6.80;4.80;;;;;;;17.74;53.75;97341.28;106776;1250;75503;-33
2023/11/30 08:02:39;;;;;;;8.40;5.10;;;;;;;17.75;53.77;97342.41;107785;1260;69744;-33
2023/11/30 08:05:06;;;;;;;8.40;4.80;;;;;;;17.77;53.94;97338.80;104985;1259;72719;-32
2023/11/30 08:07:34;;;;;;;6.40;4.90;;;;;;;17.79;54.04;97342.94;105173;1260;61156;-32
2023/11/30 08:10:01;;;;;;;6.30;4.80;;;;;;;17.80;54.20;97339.64;107110;1260;61134;-32
2023/11/30 08:12:29;;;;;;;8.10;4.80;;;;;;;17.81;54.23;97340.52;105275;1260;74970;-34
2023/11/30 08:14:56;;;;;;;7.50;4.60;;;;;;;17.83;54.41;97339.39;105300;1261;65045;-33
2023/11/30 08:17:24;;;;;;;6.40;4.60;;;;;;;17.85;54.51;97339.90;105199;1261;72781;-33
2023/11/30 08:19:51;;;;;;;5.50;4.50;;;;;;;17.87;54.59;97334.45;105162;1261;61256;-33
2023/11/30 08:22:18;;;;;;;7.20;4.80;;;;;;;17.88;54.60;97343.14;105454;1257;61227;-33
2023/11/30 08:24:45;;;;;;;9.10;4.40;;;;;;;17.88;54.52;97347.34;105248;1258;75158;-34
2023/11/30 08:27:13;;;;;;;6.90;4.80;;;;;;;17.89;54.36;97350.39;105320;1259;65819;-34
2023/11/30 08:29:41;;;;;;;5.10;4.20;;;;;;;17.89;54.25;97351.85;105330;1262;72429;-34
2023/11/30 08:32:08;;;;;;;5.60;4.40;;;;;;;17.89;54.08;97356.88;105329;1259;61273;-36
2023/11/30 08:34:36;;;;;;;5.10;4.60;;;;;;;17.89;53.92;97356.70;105213;1259;61273;-33
2023/11/30 08:37:04;;;;;;;6.20;4.90;;;;;;;17.88;53.82;97354.52;105283;1259;75242;-30
2023/11/30 08:39:31;;;;;;;6.00;4.40;;;;;;;17.88;53.73;97349.64;105042;1259;66076;-34
2023/11/30 08:41:58;;;;;;;5.50;4.30;;;;;;;17.87;53.46;97350.02;105214;1258;72413;-34
2023/11/30 08:44:26;;;;;;;5.00;4.10;;;;;;;17.87;53.45;97358.38;105226;1261;61252;-34
2023/11/30 08:46:54;;;;;;;5.90;4.20;;;;;;;17.87;53.40;97358.38;105408;1259;61238;-34
2023/11/30 08:49:22;;;;;;;6.20;4.30;;;;;;;17.87;53.41;97358.84;105354;1261;74575;-34
2023/11/30 08:51:49;;;;;;;7.00;4.60;;;;;;;17.88;53.53;97351.98;105333;1259;66219;-34
2023/11/30 08:54:17;;;;;;;8.80;4.20;;;;;;;17.91;53.79;97351.17;105244;1261;72673;-34
2023/11/30 08:56:45;;;;;;;10.30;4.10;;;;;;;17.92;53.94;97351.30;106602;1263;61215;-34
2023/11/30 08:59:13;;;;;;;7.50;4.60;;;;;;;17.96;54.13;97349.69;106519;1261;61125;-33
2023/11/30 09:01:41;;;;;;;6.40;4.70;;;;;;;17.99;54.25;97348.13;105426;1261;74674;-35
2023/11/30 09:04:09;;;;;;;9.30;3.80;;;;;;;18.03;54.37;97348.83;105506;1261;66011;-34
2023/11/30 09:06:36;;;;;;;4.90;3.90;;;;;;;18.06;54.45;97349.75;105315;1261;73855;-35
2023/11/30 09:09:04;;;;;;;7.60;3.90;;;;;;;18.08;54.50;97347.25;105096;1259;61149;-35
2023/11/30 09:11:33;;;;;;;4.80;4.00;;;;;;;18.10;54.64;97341.48;105183;1259;61297;-33
2023/11/30 09:14:00;;;;;;;5.20;4.20;;;;;;;18.11;54.57;97343.98;105295;1261;74589;-33
2023/11/30 09:16:28;;;;;;;7.80;4.40;;;;;;;18.12;54.47;97337.42;105140;1263;65850;-34
2023/11/30 09:18:56;;;;;;;5.40;4.30;;;;;;;18.14;54.44;97333.44;105234;1259;73120;-34
2023/11/30 09:21:24;;;;;;;5.70;3.80;;;;;;;18.15;54.46;97335.86;105076;1259;61333;-35
2023/11/30 09:23:53;;;;;;;6.20;4.30;;;;;;;18.16;54.48;97333.87;105179;1262;61203;-35
2023/11/30 09:26:21;;;;;;;6.10;4.20;;;;;;;18.18;54.32;97332.20;105233;1257;74504;-33
2023/11/30 09:28:50;;;;;;;6.90;4.00;;;;;;;18.19;54.48;97334.40;105216;1262;64935;-35
2023/11/30 09:31:20;;;;;;;5.80;4.10;;;;;;;18.20;54.44;97331.25;105068;1268;73386;-33
2023/11/30 09:33:53;;;;;;;5.70;4.30;;;;;;;18.21;54.38;97332.27;105110;1264;61208;-33
2023/11/30 09:36:22;;;;;;;8.50;4.60;;;;;;;18.22;54.25;97331.77;105061;1264;61370;-32
2023/11/30 09:38:50;;;;;;;6.70;4.20;;;;;;;18.25;54.18;97331.81;105154;1261;75419;-31
2023/11/30 09:41:19;;;;;;;9.50;4.60;;;;;;;18.27;53.98;97333.25;105321;1261;66224;-32
2023/11/30 09:43:46;;;;;;;6.90;4.40;;;;;;;18.29;54.08;97332.69;105266;1262;73655;-31
2023/11/30 09:46:16;;;;;;;7.20;4.70;;;;;;;18.32;54.15;97339.63;105195;1262;61414;-32
2023/11/30 09:48:45;;;;;;;6.50;4.20;;;;;;;18.35;54.08;97340.23;105222;1257;61234;-31
2023/11/30 09:51:15;;;;;;;6.00;4.50;;;;;;;18.37;54.04;97344.62;105302;1259;74698;-31
2023/11/30 09:53:42;;;;;;;5.10;4.20;;;;;;;18.39;54.08;97342.57;105114;1258;67337;-32
2023/11/30 09:56:10;;;;;;;8.10;4.50;;;;;;;18.42;54.15;97333.02;105039;1259;73817;-31
2023/11/30 09:58:40;;;;;;;4.70;4.20;;;;;;;18.44;54.44;97330.36;104981;1262;61246;-32
2023/11/30 10:01:08;;;;;;;6.70;4.60;;;;;;;18.46;54.68;97325.08;105375;1263;61233;-30
2023/11/30 10:03:37;;;;;;;5.70;4.30;;;;;;;18.49;54.96;97321.27;105297;1259;75460;-33
2023/11/30 10:06:06;;;;;;;5.80;4.50;;;;;;;18.51;55.21;97320.99;105370;1262;66223;-30
2023/11/30 10:08:33;;;;;;;7.80;4.20;;;;;;;18.53;55.45;97316.15;105017;1259;73640;-32
2023/11/30 10:11:03;;;;;;;5.90;4.00;;;;;;;18.56;55.66;97313.19;105274;1261;61332;-31
2023/11/30 10:13:31;;;;;;;4.90;4.10;;;;;;;18.57;55.80;97304.30;105153;1259;61214;-32
2023/11/30 10:15:58;;;;;;;4.50;4.00;;;;;;;18.59;55.95;97297.20;105220;1261;75232;-31
2023/11/30 10:18:30;;;;;;;6.70;4.20;;;;;;;18.61;55.94;97287.48;105152;1262;66468;-33
2023/11/30 10:20:57;;;;;;;7.20;4.40;;;;;;;18.63;56.10;97284.26;105151;1257;73672;-31
2023/11/30 10:23:25;;;;;;;7.20;3.60;;;;;;;18.65;55.99;97285.94;104917;1265;61341;-32
2023/11/30 10:25:53;;;;;;;5.60;3.90;;;;;;;18.66;56.02;97286.50;105441;1257;61532;-33
2023/11/30 10:28:21;;;;;;;5.80;4.20;;;;;;;18.68;55.98;97282.19;105120;1262;74567;-33
2023/11/30 10:30:51;;;;;;;5.40;4.20;;;;;;;18.69;55.86;97285.48;106581;1258;66546;-31
2023/11/30 10:33:21;;;;;;;11.10;4.50;;;;;;;18.72;55.82;97274.36;105075;1262;72558;-33
2023/11/30 10:35:52;;;;;;;5.60;4.60;;;;;;;18.75;55.84;97277.52;105280;1262;62005;-33
2023/11/30 10:38:21;;;;;;;6.20;4.20;;;;;;;18.76;55.76;97277.70;104894;1259;61264;-33
2023/11/30 10:40:48;;;;;;;8.30;4.50;;;;;;;18.78;55.82;97280.77;104776;1257;75606;-35
2023/11/30 10:43:16;;;;;;;9.50;4.60;;;;;;;18.80;55.84;97278.93;104818;1262;66354;-34
2023/11/30 10:45:44;;;;;;;8.30;4.20;;;;;;;18.82;55.81;97280.83;105205;1271;72379;-32
2023/11/30 10:48:13;;;;;;;6.60;4.30;;;;;;;18.84;55.75;97282.41;105071;1259;59952;-33
2023/11/30 10:50:43;;;;;;;6.10;4.10;;;;;;;18.86;55.80;97288.79;105433;1263;62166;-33
2023/11/30 10:53:17;;;;;;;6.30;4.00;;;;;;;18.89;55.93;97292.03;104678;1261;75701;-33
2023/11/30 10:55:45;;;;;;;6.60;4.30;;;;;;;18.91;55.99;97297.50;105506;1262;67374;-33
2023/11/30 10:58:12;;;;;;;9.90;4.50;;;;;;;18.93;55.96;97295.27;105215;1271;71418;-34
2023/11/30 11:00:42;;;;;;;9.00;4.80;;;;;;;18.94;55.90;97291.36;104970;1261;61689;-33
2023/11/30 11:03:10;;;;;;;6.10;4.30;;;;;;;18.97;56.03;97288.61;105429;1263;61430;-32
2023/11/30 11:05:43;;;;;;;7.40;4.60;;;;;;;18.99;55.93;97289.58;106605;1262;75357;-35
2023/11/30 11:08:14;;;;;;;5.20;4.30;;;;;;;19.01;55.99;97286.98;105163;1261;66454;-34
2023/11/30 11:10:47;;;;;;;7.10;4.40;;;;;;;19.03;56.18;97281.27;105516;1262;72854;-32
2023/11/30 11:13:24;;;;;;;5.80;4.20;;;;;;;19.04;56.15;97274.08;105037;1258;61248;-33
2023/11/30 11:15:58;;;;;;;6.80;4.00;;;;;;;19.05;56.02;97273.08;105101;1261;61131;-33
2023/11/30 11:18:31;;;;;;;5.30;4.50;;;;;;;19.05;55.89;97269.68;105252;1263;74585;-34
2023/11/30 11:20:59;;;;;;;6.20;4.30;;;;;;;19.06;55.96;97271.79;105179;1271;65532;-35
2023/11/30 11:23:38;;;;;;;6.80;4.50;;;;;;;19.08;55.80;97264.30;106979;1260;72600;-37
2023/11/30 11:26:06;;;;;;;8.90;4.80;;;;;;;19.09;56.21;97267.58;105445;1258;61280;-36
2023/11/30 11:28:35;;;;;;;15.00;4.80;;;;;;;19.13;56.46;97267.02;105141;1262;61806;-35